sensor_id;sensor_type;location;lat;lon;timestamp;temperature;humidity
27376;DHT22;14844;51.302;6.354;2023-03-14T00:06:07;11.40;99.90
27376;DHT22;14844;51.302;6.354;2023-03-14T00:08:37;11.30;99.90
27376;DHT22;14844;51.302;6.354;2023-03-14T00:11:08;11.20;99.90
27376;DHT22;14844;51.302;6.354;2023-03-14T00:13:43;11.10;99.90
27376;DHT22;14844;51.302;6.354;2023-03-14T00:16:15;11.00;99.90
27376;DHT22;14844;51.302;6.354;2023-03-14T00:19:01;10.80;99.90
27376;DHT22;14844;51.302;6.354;2023-03-14T00:24:44;10.60;99.90
27376;DHT22;14844;51.302;6.354;2023-03-14T00:30:41;10.40;99.90
27376;DHT22;14844;51.302;6.354;2023-03-14T00:33:07;10.20;99.90
27376;DHT22;14844;51.302;6.354;2023-03-14T00:35:32;10.20;99.90
27376;DHT22;14844;51.302;6.354;2023-03-14T00:37:58;10.20;99.90
27376;DHT22;14844;51.302;6.354;2023-03-14T00:40:23;10.10;99.90
27376;DHT22;14844;51.302;6.354;2023-03-14T00:42:49;10.10;99.90
27376;DHT22;14844;51.302;6.354;2023-03-14T00:45:15;10.10;99.90
27376;DHT22;14844;51.302;6.354;2023-03-14T00:47:40;10.00;99.90
27376;DHT22;14844;51.302;6.354;2023-03-14T00:50:11;10.00;99.90
27376;DHT22;14844;51.302;6.354;2023-03-14T00:52:37;10.00;99.90
27376;DHT22;14844;51.302;6.354;2023-03-14T00:55:03;10.00;99.90
27376;DHT22;14844;51.302;6.354;2023-03-14T00:57:29;9.90;99.90
27376;DHT22;14844;51.302;6.354;2023-03-14T00:59:55;9.90;99.90
27376;DHT22;14844;51.302;6.354;2023-03-14T01:02:21;9.90;99.90
27376;DHT22;14844;51.302;6.354;2023-03-14T01:04:49;9.90;99.90
27376;DHT22;14844;51.302;6.354;2023-03-14T01:07:16;9.80;99.90
27376;DHT22;14844;51.302;6.354;2023-03-14T01:09:52;9.90;99.90
27376;DHT22;14844;51.302;6.354;2023-03-14T01:12:41;9.80;99.90
27376;DHT22;14844;51.302;6.354;2023-03-14T01:15:10;9.80;99.90
27376;DHT22;14844;51.302;6.354;2023-03-14T01:17:36;9.70;99.90
27376;DHT22;14844;51.302;6.354;2023-03-14T01:20:09;9.60;99.90
27376;DHT22;14844;51.302;6.354;2023-03-14T01:22:35;9.50;99.90
27376;DHT22;14844;51.302;6.354;2023-03-14T01:25:01;9.50;99.90
27376;DHT22;14844;51.302;6.354;2023-03-14T01:27:27;9.40;99.90
27376;DHT22;14844;51.302;6.354;2023-03-14T01:29:52;9.30;99.90
27376;DHT22;14844;51.302;6.354;2023-03-14T01:32:18;9.30;99.90
27376;DHT22;14844;51.302;6.354;2023-03-14T01:34:44;9.40;99.90
27376;DHT22;14844;51.302;6.354;2023-03-14T01:37:09;9.40;99.90
27376;DHT22;14844;51.302;6.354;2023-03-14T01:39:37;9.40;99.90
27376;DHT22;14844;51.302;6.354;2023-03-14T01:42:03;9.40;99.90
27376;DHT22;14844;51.302;6.354;2023-03-14T01:44:45;9.40;99.90
27376;DHT22;14844;51.302;6.354;2023-03-14T01:47:11;9.40;99.90
27376;DHT22;14844;51.302;6.354;2023-03-14T01:49:36;9.50;99.90
27376;DHT22;14844;51.302;6.354;2023-03-14T01:52:07;9.60;99.90
27376;DHT22;14844;51.302;6.354;2023-03-14T01:54:36;9.60;99.90
27376;DHT22;14844;51.302;6.354;2023-03-14T01:57:14;9.60;99.90
27376;DHT22;14844;51.302;6.354;2023-03-14T01:59:45;9.70;99.90
27376;DHT22;14844;51.302;6.354;2023-03-14T02:02:12;9.70;99.90
27376;DHT22;14844;51.302;6.354;2023-03-14T02:04:39;9.70;99.90
27376;DHT22;14844;51.302;6.354;2023-03-14T02:10:03;9.70;99.90
27376;DHT22;14844;51.302;6.354;2023-03-14T02:12:29;9.70;99.90
27376;DHT22;14844;51.302;6.354;2023-03-14T02:14:55;9.70;99.90
27376;DHT22;14844;51.302;6.354;2023-03-14T02:17:22;9.70;99.90
27376;DHT22;14844;51.302;6.354;2023-03-14T02:22:35;9.70;99.90
27376;DHT22;14844;51.302;6.354;2023-03-14T02:25:39;9.60;99.90
27376;DHT22;14844;51.302;6.354;2023-03-14T02:27:57;9.60;99.90
27376;DHT22;14844;51.302;6.354;2023-03-14T02:30:26;9.60;99.90
27376;DHT22;14844;51.302;6.354;2023-03-14T02:32:55;9.60;99.90
27376;DHT22;14844;51.302;6.354;2023-03-14T02:35:26;9.60;99.90
27376;DHT22;14844;51.302;6.354;2023-03-14T02:40:37;9.60;99.90
27376;DHT22;14844;51.302;6.354;2023-03-14T02:43:03;9.60;99.90
27376;DHT22;14844;51.302;6.354;2023-03-14T02:45:43;9.60;99.90
27376;DHT22;14844;51.302;6.354;2023-03-14T02:48:16;9.60;99.90
27376;DHT22;14844;51.302;6.354;2023-03-14T02:50:45;9.60;99.90
27376;DHT22;14844;51.302;6.354;2023-03-14T02:53:14;9.60;99.90
27376;DHT22;14844;51.302;6.354;2023-03-14T02:55:45;9.70;99.90
27376;DHT22;14844;51.302;6.354;2023-03-14T02:58:10;9.70;99.90
27376;DHT22;14844;51.302;6.354;2023-03-14T03:00:36;9.70;99.90
27376;DHT22;14844;51.302;6.354;2023-03-14T03:03:02;9.70;99.90
27376;DHT22;14844;51.302;6.354;2023-03-14T03:05:30;9.70;99.90
27376;DHT22;14844;51.302;6.354;2023-03-14T03:07:55;9.70;99.90
27376;DHT22;14844;51.302;6.354;2023-03-14T03:10:22;9.70;99.90
27376;DHT22;14844;51.302;6.354;2023-03-14T03:12:48;9.70;99.90
27376;DHT22;14844;51.302;6.354;2023-03-14T03:15:14;9.80;99.90
27376;DHT22;14844;51.302;6.354;2023-03-14T03:17:39;9.80;99.90
27376;DHT22;14844;51.302;6.354;2023-03-14T03:20:06;9.80;99.90
27376;DHT22;14844;51.302;6.354;2023-03-14T03:22:35;9.80;99.90
27376;DHT22;14844;51.302;6.354;2023-03-14T03:25:01;9.90;99.90
27376;DHT22;14844;51.302;6.354;2023-03-14T03:27:30;9.90;99.90
27376;DHT22;14844;51.302;6.354;2023-03-14T03:29:57;9.90;99.90
27376;DHT22;14844;51.302;6.354;2023-03-14T03:32:23;9.90;99.90
27376;DHT22;14844;51.302;6.354;2023-03-14T03:34:51;9.90;99.90
27376;DHT22;14844;51.302;6.354;2023-03-14T03:37:17;9.90;99.90
27376;DHT22;14844;51.302;6.354;2023-03-14T03:39:43;9.90;99.90
27376;DHT22;14844;51.302;6.354;2023-03-14T03:42:09;9.90;99.90
27376;DHT22;14844;51.302;6.354;2023-03-14T03:44:35;9.90;99.90
27376;DHT22;14844;51.302;6.354;2023-03-14T03:47:01;9.90;99.90
27376;DHT22;14844;51.302;6.354;2023-03-14T03:52:37;9.90;99.90
27376;DHT22;14844;51.302;6.354;2023-03-14T03:58:28;9.60;99.90
27376;DHT22;14844;51.302;6.354;2023-03-14T04:00:54;9.40;99.90
27376;DHT22;14844;51.302;6.354;2023-03-14T04:03:19;9.30;99.90
27376;DHT22;14844;51.302;6.354;2023-03-14T04:05:45;9.20;99.90
27376;DHT22;14844;51.302;6.354;2023-03-14T04:08:10;9.10;99.90
27376;DHT22;14844;51.302;6.354;2023-03-14T04:10:37;9.10;99.90
27376;DHT22;14844;51.302;6.354;2023-03-14T04:13:02;9.10;99.90
27376;DHT22;14844;51.302;6.354;2023-03-14T04:15:30;9.00;99.90
27376;DHT22;14844;51.302;6.354;2023-03-14T04:17:57;8.90;99.90
27376;DHT22;14844;51.302;6.354;2023-03-14T04:20:23;8.90;99.90
27376;DHT22;14844;51.302;6.354;2023-03-14T04:22:49;8.80;99.90
27376;DHT22;14844;51.302;6.354;2023-03-14T04:25:14;8.70;99.90
27376;DHT22;14844;51.302;6.354;2023-03-14T04:27:42;8.70;99.90
27376;DHT22;14844;51.302;6.354;2023-03-14T04:30:09;8.60;99.90
27376;DHT22;14844;51.302;6.354;2023-03-14T04:32:35;8.60;99.90
27376;DHT22;14844;51.302;6.354;2023-03-14T04:35:02;8.50;99.90
27376;DHT22;14844;51.302;6.354;2023-03-14T04:37:33;8.60;99.90
27376;DHT22;14844;51.302;6.354;2023-03-14T04:40:02;8.50;99.90
27376;DHT22;14844;51.302;6.354;2023-03-14T04:42:29;8.50;99.90
27376;DHT22;14844;51.302;6.354;2023-03-14T04:44:54;8.50;99.90
27376;DHT22;14844;51.302;6.354;2023-03-14T04:47:20;8.50;99.90
27376;DHT22;14844;51.302;6.354;2023-03-14T04:49:46;8.50;99.90
27376;DHT22;14844;51.302;6.354;2023-03-14T04:52:11;8.50;99.90
27376;DHT22;14844;51.302;6.354;2023-03-14T04:54:37;8.50;99.90
27376;DHT22;14844;51.302;6.354;2023-03-14T04:57:02;8.50;99.90
27376;DHT22;14844;51.302;6.354;2023-03-14T04:59:28;8.50;99.90
27376;DHT22;14844;51.302;6.354;2023-03-14T05:02:00;8.50;99.90
27376;DHT22;14844;51.302;6.354;2023-03-14T05:04:25;8.50;99.90
27376;DHT22;14844;51.302;6.354;2023-03-14T05:06:51;8.50;99.90
27376;DHT22;14844;51.302;6.354;2023-03-14T05:09:27;8.40;99.90
27376;DHT22;14844;51.302;6.354;2023-03-14T05:11:52;8.50;99.90
27376;DHT22;14844;51.302;6.354;2023-03-14T05:14:18;8.50;99.90
27376;DHT22;14844;51.302;6.354;2023-03-14T05:16:43;8.50;99.90
27376;DHT22;14844;51.302;6.354;2023-03-14T05:19:10;8.50;99.90
27376;DHT22;14844;51.302;6.354;2023-03-14T05:21:36;8.50;99.90
27376;DHT22;14844;51.302;6.354;2023-03-14T05:24:05;8.60;99.90
27376;DHT22;14844;51.302;6.354;2023-03-14T05:26:33;8.60;99.90
27376;DHT22;14844;51.302;6.354;2023-03-14T05:32:10;8.80;99.90
27376;DHT22;14844;51.302;6.354;2023-03-14T05:34:36;8.80;99.90
27376;DHT22;14844;51.302;6.354;2023-03-14T05:37:01;8.80;99.90
27376;DHT22;14844;51.302;6.354;2023-03-14T05:39:27;8.90;99.90
27376;DHT22;14844;51.302;6.354;2023-03-14T05:41:53;8.90;99.90
27376;DHT22;14844;51.302;6.354;2023-03-14T05:44:21;9.00;99.90
27376;DHT22;14844;51.302;6.354;2023-03-14T05:46:46;8.90;99.90
27376;DHT22;14844;51.302;6.354;2023-03-14T05:49:12;9.00;99.90
27376;DHT22;14844;51.302;6.354;2023-03-14T05:51:37;9.00;99.90
27376;DHT22;14844;51.302;6.354;2023-03-14T05:54:03;9.00;99.90
27376;DHT22;14844;51.302;6.354;2023-03-14T05:56:28;9.00;99.90
27376;DHT22;14844;51.302;6.354;2023-03-14T05:58:54;9.10;99.90
27376;DHT22;14844;51.302;6.354;2023-03-14T06:01:20;9.10;99.90
27376;DHT22;14844;51.302;6.354;2023-03-14T06:03:49;9.10;99.90
27376;DHT22;14844;51.302;6.354;2023-03-14T06:06:15;9.10;99.90
27376;DHT22;14844;51.302;6.354;2023-03-14T06:08:42;9.10;99.90
27376;DHT22;14844;51.302;6.354;2023-03-14T06:11:07;9.10;99.90
27376;DHT22;14844;51.302;6.354;2023-03-14T06:13:35;9.10;99.90
27376;DHT22;14844;51.302;6.354;2023-03-14T06:16:03;9.10;99.90
27376;DHT22;14844;51.302;6.354;2023-03-14T06:18:28;9.10;99.90
27376;DHT22;14844;51.302;6.354;2023-03-14T06:20:56;9.10;99.90
27376;DHT22;14844;51.302;6.354;2023-03-14T06:23:23;9.20;99.90
27376;DHT22;14844;51.302;6.354;2023-03-14T06:25:48;9.20;99.90
27376;DHT22;14844;51.302;6.354;2023-03-14T06:28:15;9.10;99.90
27376;DHT22;14844;51.302;6.354;2023-03-14T06:30:42;9.20;99.90
27376;DHT22;14844;51.302;6.354;2023-03-14T06:33:07;9.20;99.90
27376;DHT22;14844;51.302;6.354;2023-03-14T06:35:34;9.20;99.90
27376;DHT22;14844;51.302;6.354;2023-03-14T06:37:59;9.20;99.90
27376;DHT22;14844;51.302;6.354;2023-03-14T06:40:27;9.20;99.90
27376;DHT22;14844;51.302;6.354;2023-03-14T06:42:53;9.20;99.90
27376;DHT22;14844;51.302;6.354;2023-03-14T06:45:18;9.20;99.90
27376;DHT22;14844;51.302;6.354;2023-03-14T06:47:44;9.30;99.90
27376;DHT22;14844;51.302;6.354;2023-03-14T06:50:10;9.20;99.90
27376;DHT22;14844;51.302;6.354;2023-03-14T06:52:36;9.30;99.90
27376;DHT22;14844;51.302;6.354;2023-03-14T06:55:02;9.30;99.90
27376;DHT22;14844;51.302;6.354;2023-03-14T06:57:28;9.30;99.90
27376;DHT22;14844;51.302;6.354;2023-03-14T06:59:54;9.40;99.90
27376;DHT22;14844;51.302;6.354;2023-03-14T07:02:22;9.50;99.90
27376;DHT22;14844;51.302;6.354;2023-03-14T07:04:48;9.50;99.90
27376;DHT22;14844;51.302;6.354;2023-03-14T07:07:14;9.60;99.90
27376;DHT22;14844;51.302;6.354;2023-03-14T07:09:39;9.60;99.90
27376;DHT22;14844;51.302;6.354;2023-03-14T07:12:05;9.60;99.90
27376;DHT22;14844;51.302;6.354;2023-03-14T07:14:31;9.60;99.90
27376;DHT22;14844;51.302;6.354;2023-03-14T07:16:57;9.60;99.90
27376;DHT22;14844;51.302;6.354;2023-03-14T07:19:28;9.60;99.90
27376;DHT22;14844;51.302;6.354;2023-03-14T07:21:54;9.70;99.90
27376;DHT22;14844;51.302;6.354;2023-03-14T07:24:21;9.70;99.90
27376;DHT22;14844;51.302;6.354;2023-03-14T07:26:47;9.70;99.90
27376;DHT22;14844;51.302;6.354;2023-03-14T07:29:13;9.60;99.90
27376;DHT22;14844;51.302;6.354;2023-03-14T07:31:40;9.70;99.90
27376;DHT22;14844;51.302;6.354;2023-03-14T07:34:06;9.80;99.90
27376;DHT22;14844;51.302;6.354;2023-03-14T07:36:32;9.80;99.90
27376;DHT22;14844;51.302;6.354;2023-03-14T07:38:58;9.80;99.90
27376;DHT22;14844;51.302;6.354;2023-03-14T07:41:24;9.80;99.90
27376;DHT22;14844;51.302;6.354;2023-03-14T07:43:50;9.90;99.90
27376;DHT22;14844;51.302;6.354;2023-03-14T07:46:19;9.90;99.90
27376;DHT22;14844;51.302;6.354;2023-03-14T07:48:45;10.00;99.90
27376;DHT22;14844;51.302;6.354;2023-03-14T07:51:12;10.10;99.90
27376;DHT22;14844;51.302;6.354;2023-03-14T07:53:38;10.20;99.90
27376;DHT22;14844;51.302;6.354;2023-03-14T07:56:06;10.30;99.90
27376;DHT22;14844;51.302;6.354;2023-03-14T07:58:31;10.20;99.90
27376;DHT22;14844;51.302;6.354;2023-03-14T08:00:58;10.20;99.90
27376;DHT22;14844;51.302;6.354;2023-03-14T08:03:24;10.20;99.90
27376;DHT22;14844;51.302;6.354;2023-03-14T08:05:50;10.10;99.90
27376;DHT22;14844;51.302;6.354;2023-03-14T08:08:17;10.00;99.90
27376;DHT22;14844;51.302;6.354;2023-03-14T08:10:43;10.00;99.90
27376;DHT22;14844;51.302;6.354;2023-03-14T08:13:09;10.00;99.90
27376;DHT22;14844;51.302;6.354;2023-03-14T08:15:36;10.00;99.90
27376;DHT22;14844;51.302;6.354;2023-03-14T08:18:02;10.00;99.90
27376;DHT22;14844;51.302;6.354;2023-03-14T08:20:29;9.90;99.90
27376;DHT22;14844;51.302;6.354;2023-03-14T08:22:59;9.90;99.90
27376;DHT22;14844;51.302;6.354;2023-03-14T08:25:26;9.80;99.90
27376;DHT22;14844;51.302;6.354;2023-03-14T08:27:52;9.80;99.90
27376;DHT22;14844;51.302;6.354;2023-03-14T08:30:19;9.80;99.90
27376;DHT22;14844;51.302;6.354;2023-03-14T08:32:47;9.70;99.90
27376;DHT22;14844;51.302;6.354;2023-03-14T08:35:13;9.70;99.90
27376;DHT22;14844;51.302;6.354;2023-03-14T08:37:38;9.70;99.90
27376;DHT22;14844;51.302;6.354;2023-03-14T08:40:05;9.80;99.90
27376;DHT22;14844;51.302;6.354;2023-03-14T08:42:36;9.80;99.90
27376;DHT22;14844;51.302;6.354;2023-03-14T08:45:02;9.90;99.90
27376;DHT22;14844;51.302;6.354;2023-03-14T08:47:28;9.90;99.90
27376;DHT22;14844;51.302;6.354;2023-03-14T08:49:53;9.80;99.90
27376;DHT22;14844;51.302;6.354;2023-03-14T08:52:19;9.30;99.90
27376;DHT22;14844;51.302;6.354;2023-03-14T08:54:45;9.00;99.90
27376;DHT22;14844;51.302;6.354;2023-03-14T08:57:10;8.80;99.90
27376;DHT22;14844;51.302;6.354;2023-03-14T08:59:36;8.40;99.90
27376;DHT22;14844;51.302;6.354;2023-03-14T09:02:02;8.00;99.90
27376;DHT22;14844;51.302;6.354;2023-03-14T09:04:32;7.80;99.90
27376;DHT22;14844;51.302;6.354;2023-03-14T09:06:58;7.70;99.90
27376;DHT22;14844;51.302;6.354;2023-03-14T09:09:25;7.70;99.90
27376;DHT22;14844;51.302;6.354;2023-03-14T09:11:52;7.70;99.90
27376;DHT22;14844;51.302;6.354;2023-03-14T09:14:18;7.80;99.90
27376;DHT22;14844;51.302;6.354;2023-03-14T09:16:43;7.80;99.90
27376;DHT22;14844;51.302;6.354;2023-03-14T09:19:09;7.80;99.90
27376;DHT22;14844;51.302;6.354;2023-03-14T09:21:35;7.90;99.90
27376;DHT22;14844;51.302;6.354;2023-03-14T09:24:01;7.70;99.90
27376;DHT22;14844;51.302;6.354;2023-03-14T09:26:26;7.70;99.90
27376;DHT22;14844;51.302;6.354;2023-03-14T09:28:52;7.70;99.90
27376;DHT22;14844;51.302;6.354;2023-03-14T09:31:17;7.60;99.90
27376;DHT22;14844;51.302;6.354;2023-03-14T09:33:43;7.60;99.90
27376;DHT22;14844;51.302;6.354;2023-03-14T09:36:10;7.80;99.90
27376;DHT22;14844;51.302;6.354;2023-03-14T09:38:36;7.70;99.90
27376;DHT22;14844;51.302;6.354;2023-03-14T09:41:09;7.70;99.90
27376;DHT22;14844;51.302;6.354;2023-03-14T09:43:37;7.70;99.90
27376;DHT22;14844;51.302;6.354;2023-03-14T09:46:03;7.80;99.90
27376;DHT22;14844;51.302;6.354;2023-03-14T09:48:32;8.10;99.90
27376;DHT22;14844;51.302;6.354;2023-03-14T09:51:01;8.20;99.90
27376;DHT22;14844;51.302;6.354;2023-03-14T09:53:47;8.20;99.90
27376;DHT22;14844;51.302;6.354;2023-03-14T09:56:23;8.30;99.90
27376;DHT22;14844;51.302;6.354;2023-03-14T09:58:56;8.20;99.90
27376;DHT22;14844;51.302;6.354;2023-03-14T10:01:29;8.10;99.90
27376;DHT22;14844;51.302;6.354;2023-03-14T10:03:57;8.00;99.90
27376;DHT22;14844;51.302;6.354;2023-03-14T10:06:27;8.00;99.90
27376;DHT22;14844;51.302;6.354;2023-03-14T10:08:54;8.00;99.90
27376;DHT22;14844;51.302;6.354;2023-03-14T10:11:20;8.00;99.90
27376;DHT22;14844;51.302;6.354;2023-03-14T10:14:01;8.00;99.90
27376;DHT22;14844;51.302;6.354;2023-03-14T10:16:33;8.00;99.90
27376;DHT22;14844;51.302;6.354;2023-03-14T10:19:23;7.70;99.90
27376;DHT22;14844;51.302;6.354;2023-03-14T10:21:53;7.60;99.90
27376;DHT22;14844;51.302;6.354;2023-03-14T10:24:32;7.60;99.90
27376;DHT22;14844;51.302;6.354;2023-03-14T10:27:04;7.50;99.90
27376;DHT22;14844;51.302;6.354;2023-03-14T10:29:34;7.50;99.90
27376;DHT22;14844;51.302;6.354;2023-03-14T10:32:02;7.50;99.90
27376;DHT22;14844;51.302;6.354;2023-03-14T10:34:35;7.40;99.90
27376;DHT22;14844;51.302;6.354;2023-03-14T10:37:24;7.00;99.90
27376;DHT22;14844;51.302;6.354;2023-03-14T10:39:59;6.90;99.90
27376;DHT22;14844;51.302;6.354;2023-03-14T10:42:39;6.80;99.90
27376;DHT22;14844;51.302;6.354;2023-03-14T10:45:28;6.80;99.90
27376;DHT22;14844;51.302;6.354;2023-03-14T10:53:49;6.90;99.90
27376;DHT22;14844;51.302;6.354;2023-03-14T10:56:20;6.90;99.90
27376;DHT22;14844;51.302;6.354;2023-03-14T10:58:51;7.00;99.90
27376;DHT22;14844;51.302;6.354;2023-03-14T11:01:39;7.00;99.90
27376;DHT22;14844;51.302;6.354;2023-03-14T11:04:48;7.00;99.90
27376;DHT22;14844;51.302;6.354;2023-03-14T11:07:40;7.10;99.90
27376;DHT22;14844;51.302;6.354;2023-03-14T11:10:18;6.90;99.90
27376;DHT22;14844;51.302;6.354;2023-03-14T11:13:16;7.00;99.90
27376;DHT22;14844;51.302;6.354;2023-03-14T11:19:00;7.20;99.90
27376;DHT22;14844;51.302;6.354;2023-03-14T11:21:54;7.20;99.90
27376;DHT22;14844;51.302;6.354;2023-03-14T11:27:14;7.10;99.90
27376;DHT22;14844;51.302;6.354;2023-03-14T11:29:55;7.20;99.90
27376;DHT22;14844;51.302;6.354;2023-03-14T11:35:22;7.40;99.90
27376;DHT22;14844;51.302;6.354;2023-03-14T11:38:02;7.40;99.90
27376;DHT22;14844;51.302;6.354;2023-03-14T11:40:28;7.20;99.90
27376;DHT22;14844;51.302;6.354;2023-03-14T11:43:04;7.00;99.90
27376;DHT22;14844;51.302;6.354;2023-03-14T11:45:36;7.00;99.90
27376;DHT22;14844;51.302;6.354;2023-03-14T11:50:57;7.00;99.90
27376;DHT22;14844;51.302;6.354;2023-03-14T11:56:15;7.20;99.90
27376;DHT22;14844;51.302;6.354;2023-03-14T12:10:48;8.10;99.90
27376;DHT22;14844;51.302;6.354;2023-03-14T12:13:16;7.90;99.90
27376;DHT22;14844;51.302;6.354;2023-03-14T12:15:50;7.60;99.90
27376;DHT22;14844;51.302;6.354;2023-03-14T12:20:58;7.30;99.90
27376;DHT22;14844;51.302;6.354;2023-03-14T12:23:27;7.60;99.90
27376;DHT22;14844;51.302;6.354;2023-03-14T12:26:18;7.80;99.90
27376;DHT22;14844;51.302;6.354;2023-03-14T12:28:50;8.10;99.90
27376;DHT22;14844;51.302;6.354;2023-03-14T12:39:37;7.30;99.90
27376;DHT22;14844;51.302;6.354;2023-03-14T12:42:13;6.80;99.90
27376;DHT22;14844;51.302;6.354;2023-03-14T12:44:43;5.90;99.90
27376;DHT22;14844;51.302;6.354;2023-03-14T12:49:49;5.50;99.90
27376;DHT22;14844;51.302;6.354;2023-03-14T12:55:10;5.60;99.90
27376;DHT22;14844;51.302;6.354;2023-03-14T12:58:03;5.60;99.90
27376;DHT22;14844;51.302;6.354;2023-03-14T13:00:33;5.80;99.90
27376;DHT22;14844;51.302;6.354;2023-03-14T13:03:12;6.10;99.90
27376;DHT22;14844;51.302;6.354;2023-03-14T13:05:55;6.40;99.90
27376;DHT22;14844;51.302;6.354;2023-03-14T13:08:34;6.70;99.90
27376;DHT22;14844;51.302;6.354;2023-03-14T13:11:02;6.90;99.90
27376;DHT22;14844;51.302;6.354;2023-03-14T13:13:29;6.70;99.90
27376;DHT22;14844;51.302;6.354;2023-03-14T13:15:57;6.60;99.90
27376;DHT22;14844;51.302;6.354;2023-03-14T13:21:24;6.00;99.90
27376;DHT22;14844;51.302;6.354;2023-03-14T13:24:01;5.80;99.90
27376;DHT22;14844;51.302;6.354;2023-03-14T13:26:43;5.90;99.90
27376;DHT22;14844;51.302;6.354;2023-03-14T13:29:30;6.10;99.90
27376;DHT22;14844;51.302;6.354;2023-03-14T13:32:12;6.40;99.90
27376;DHT22;14844;51.302;6.354;2023-03-14T13:34:38;6.60;99.90
27376;DHT22;14844;51.302;6.354;2023-03-14T13:37:03;6.80;99.90
27376;DHT22;14844;51.302;6.354;2023-03-14T13:39:31;7.00;99.90
27376;DHT22;14844;51.302;6.354;2023-03-14T13:41:59;7.00;99.90
27376;DHT22;14844;51.302;6.354;2023-03-14T13:44:37;7.10;99.90
27376;DHT22;14844;51.302;6.354;2023-03-14T13:47:09;7.10;99.90
27376;DHT22;14844;51.302;6.354;2023-03-14T13:49:36;7.10;99.90
27376;DHT22;14844;51.302;6.354;2023-03-14T13:52:03;7.20;99.90
27376;DHT22;14844;51.302;6.354;2023-03-14T13:54:31;7.40;99.90
27376;DHT22;14844;51.302;6.354;2023-03-14T13:57:02;7.50;99.90
27376;DHT22;14844;51.302;6.354;2023-03-14T13:59:33;7.60;99.90
27376;DHT22;14844;51.302;6.354;2023-03-14T14:02:15;7.60;99.90
27376;DHT22;14844;51.302;6.354;2023-03-14T14:04:41;7.60;99.90
27376;DHT22;14844;51.302;6.354;2023-03-14T14:07:12;7.70;99.90
27376;DHT22;14844;51.302;6.354;2023-03-14T14:09:52;7.70;99.90
27376;DHT22;14844;51.302;6.354;2023-03-14T14:12:33;7.60;99.90
27376;DHT22;14844;51.302;6.354;2023-03-14T14:15:07;7.40;99.90
27376;DHT22;14844;51.302;6.354;2023-03-14T14:17:42;7.30;99.90
27376;DHT22;14844;51.302;6.354;2023-03-14T14:20:39;7.30;99.90
27376;DHT22;14844;51.302;6.354;2023-03-14T14:23:21;7.40;99.90
27376;DHT22;14844;51.302;6.354;2023-03-14T14:25:51;7.40;99.90
27376;DHT22;14844;51.302;6.354;2023-03-14T14:28:30;7.50;99.90
27376;DHT22;14844;51.302;6.354;2023-03-14T14:31:05;7.70;99.90
27376;DHT22;14844;51.302;6.354;2023-03-14T14:33:40;7.90;99.90
27376;DHT22;14844;51.302;6.354;2023-03-14T14:39:01;8.10;99.90
27376;DHT22;14844;51.302;6.354;2023-03-14T14:41:35;8.30;99.90
27376;DHT22;14844;51.302;6.354;2023-03-14T14:44:04;8.50;99.90
27376;DHT22;14844;51.302;6.354;2023-03-14T14:46:32;8.70;99.90
27376;DHT22;14844;51.302;6.354;2023-03-14T14:49:08;8.80;99.90
27376;DHT22;14844;51.302;6.354;2023-03-14T14:54:51;8.80;99.90
27376;DHT22;14844;51.302;6.354;2023-03-14T14:57:26;8.90;99.90
27376;DHT22;14844;51.302;6.354;2023-03-14T15:00:00;8.90;99.90
27376;DHT22;14844;51.302;6.354;2023-03-14T15:02:50;9.00;99.90
27376;DHT22;14844;51.302;6.354;2023-03-14T15:05:23;8.80;99.90
27376;DHT22;14844;51.302;6.354;2023-03-14T15:07:49;8.70;99.90
27376;DHT22;14844;51.302;6.354;2023-03-14T15:10:20;8.60;99.90
27376;DHT22;14844;51.302;6.354;2023-03-14T15:12:47;8.70;99.90
27376;DHT22;14844;51.302;6.354;2023-03-14T15:15:14;8.70;99.90
27376;DHT22;14844;51.302;6.354;2023-03-14T15:17:40;8.70;99.90
27376;DHT22;14844;51.302;6.354;2023-03-14T15:20:09;8.60;99.90
27376;DHT22;14844;51.302;6.354;2023-03-14T15:22:35;8.50;99.90
27376;DHT22;14844;51.302;6.354;2023-03-14T15:25:01;8.30;99.90
27376;DHT22;14844;51.302;6.354;2023-03-14T15:27:28;8.20;99.90
27376;DHT22;14844;51.302;6.354;2023-03-14T15:29:56;8.20;99.90
27376;DHT22;14844;51.302;6.354;2023-03-14T15:32:21;8.20;99.90
27376;DHT22;14844;51.302;6.354;2023-03-14T15:34:48;8.20;99.90
27376;DHT22;14844;51.302;6.354;2023-03-14T15:37:15;8.20;99.90
27376;DHT22;14844;51.302;6.354;2023-03-14T15:39:42;8.20;99.90
27376;DHT22;14844;51.302;6.354;2023-03-14T15:42:08;8.10;99.90
27376;DHT22;14844;51.302;6.354;2023-03-14T15:44:35;8.10;99.90
27376;DHT22;14844;51.302;6.354;2023-03-14T15:47:00;8.10;99.90
27376;DHT22;14844;51.302;6.354;2023-03-14T15:49:27;8.10;99.90
27376;DHT22;14844;51.302;6.354;2023-03-14T15:51:52;8.10;99.90
27376;DHT22;14844;51.302;6.354;2023-03-14T15:54:18;8.00;99.90
27376;DHT22;14844;51.302;6.354;2023-03-14T15:56:44;8.00;99.90
27376;DHT22;14844;51.302;6.354;2023-03-14T15:59:09;7.90;99.90
27376;DHT22;14844;51.302;6.354;2023-03-14T16:01:35;7.80;99.90
27376;DHT22;14844;51.302;6.354;2023-03-14T16:04:01;7.70;99.90
27376;DHT22;14844;51.302;6.354;2023-03-14T16:06:28;7.70;99.90
27376;DHT22;14844;51.302;6.354;2023-03-14T16:08:53;7.60;99.90
27376;DHT22;14844;51.302;6.354;2023-03-14T16:11:19;7.60;99.90
27376;DHT22;14844;51.302;6.354;2023-03-14T16:13:45;7.60;99.90
27376;DHT22;14844;51.302;6.354;2023-03-14T16:16:11;7.60;99.90
27376;DHT22;14844;51.302;6.354;2023-03-14T16:18:40;7.50;99.90
27376;DHT22;14844;51.302;6.354;2023-03-14T16:21:09;7.50;99.90
27376;DHT22;14844;51.302;6.354;2023-03-14T16:23:35;7.40;99.90
27376;DHT22;14844;51.302;6.354;2023-03-14T16:26:06;7.40;99.90
27376;DHT22;14844;51.302;6.354;2023-03-14T16:28:32;7.40;99.90
27376;DHT22;14844;51.302;6.354;2023-03-14T16:31:02;7.30;99.90
27376;DHT22;14844;51.302;6.354;2023-03-14T16:33:29;7.30;99.90
27376;DHT22;14844;51.302;6.354;2023-03-14T16:35:59;7.20;99.90
27376;DHT22;14844;51.302;6.354;2023-03-14T16:38:36;7.10;99.90
27376;DHT22;14844;51.302;6.354;2023-03-14T16:41:09;7.00;99.90
27376;DHT22;14844;51.302;6.354;2023-03-14T16:43:36;7.00;99.90
27376;DHT22;14844;51.302;6.354;2023-03-14T16:46:02;7.00;99.90
27376;DHT22;14844;51.302;6.354;2023-03-14T16:48:28;7.00;99.90
27376;DHT22;14844;51.302;6.354;2023-03-14T16:50:54;6.90;99.90
27376;DHT22;14844;51.302;6.354;2023-03-14T16:53:20;6.90;99.90
27376;DHT22;14844;51.302;6.354;2023-03-14T16:55:46;6.80;99.90
27376;DHT22;14844;51.302;6.354;2023-03-14T16:58:13;6.70;99.90
27376;DHT22;14844;51.302;6.354;2023-03-14T17:00:39;6.60;99.90
27376;DHT22;14844;51.302;6.354;2023-03-14T17:03:05;6.50;99.90
27376;DHT22;14844;51.302;6.354;2023-03-14T17:05:31;6.50;99.90
27376;DHT22;14844;51.302;6.354;2023-03-14T17:07:57;6.40;99.90
27376;DHT22;14844;51.302;6.354;2023-03-14T17:10:23;6.40;99.90
27376;DHT22;14844;51.302;6.354;2023-03-14T17:12:48;6.30;99.90
27376;DHT22;14844;51.302;6.354;2023-03-14T17:15:14;6.30;99.90
27376;DHT22;14844;51.302;6.354;2023-03-14T17:17:40;6.20;99.90
27376;DHT22;14844;51.302;6.354;2023-03-14T17:20:06;6.20;99.90
27376;DHT22;14844;51.302;6.354;2023-03-14T17:22:34;6.10;99.90
27376;DHT22;14844;51.302;6.354;2023-03-14T17:25:00;6.10;99.90